createdAt,value
2023-02-02T00:01:52.204Z,100751.88
2023-02-02T00:04:22.036Z,100753.88
2023-02-02T00:06:49.875Z,100753.06
2023-02-02T00:09:19.644Z,100782.06
2023-02-02T00:11:50.206Z,100781.06
2023-02-02T00:14:19.479Z,100768.78
2023-02-02T00:16:48.655Z,100785.69
2023-02-02T00:19:18.207Z,100777.75
2023-02-02T00:21:46.649Z,100779.97
2023-02-02T00:24:15.650Z,100784.06
2023-02-02T00:26:44.109Z,100787.38
2023-02-02T00:29:16.163Z,100779.41
2023-02-02T00:31:45.114Z,100780.41
2023-02-02T00:34:13.056Z,100779.88
2023-02-02T00:36:40.739Z,100795.59
2023-02-02T00:39:08.885Z,100811.50
2023-02-02T00:41:36.447Z,100800.28
2023-02-02T00:44:21.435Z,100816.03
2023-02-02T00:46:50.287Z,100797.63
2023-02-02T00:49:17.835Z,100802.09
2023-02-02T00:51:45.341Z,100821.13
2023-02-02T00:54:14.214Z,100809.88
2023-02-02T00:56:42.600Z,100818.84
2023-02-02T00:59:10.155Z,100822.47
2023-02-02T01:01:37.668Z,100823.66
2023-02-02T01:04:06.594Z,100839.41
2023-02-02T01:06:34.175Z,100844.59
2023-02-02T01:09:02.955Z,100832.88
2023-02-02T01:11:31.686Z,100837.91
2023-02-02T01:13:59.285Z,100838.75
2023-02-02T01:16:27.047Z,100839.66
2023-02-02T01:18:55.389Z,100837.34
2023-02-02T01:21:24.542Z,100831.56
2023-02-02T01:23:52.151Z,100835.34
2023-02-02T01:26:19.843Z,100843.94
2023-02-02T01:28:47.390Z,100849.59
2023-02-02T01:31:17.380Z,100847.41
2023-02-02T01:33:46.207Z,100867.78
2023-02-02T01:36:15.707Z,100861.50
2023-02-02T01:38:44.776Z,100871.41
2023-02-02T01:41:14.488Z,100891.28
2023-02-02T01:43:58.096Z,100878.47
2023-02-02T01:46:27.856Z,100884.59
2023-02-02T01:49:03.396Z,100897.22
2023-02-02T01:51:36.719Z,100894.22
2023-02-02T01:54:09.239Z,100918.25
2023-02-02T01:56:44.184Z,100926.19
2023-02-02T01:59:14.543Z,100926.19
2023-02-02T02:01:42.511Z,100914.97
2023-02-02T02:04:10.079Z,100913.47
2023-02-02T02:06:37.656Z,100921.50
2023-02-02T02:09:08.162Z,100927.78
2023-02-02T02:11:36.981Z,100923.53
2023-02-02T02:14:24.060Z,100931.47
2023-02-02T02:17:04.305Z,100928.38
2023-02-02T02:20:17.302Z,100959.00
2023-02-02T02:23:23.441Z,100938.50
2023-02-02T02:26:32.601Z,100960.19
2023-02-02T02:29:26.263Z,100953.91
2023-02-02T02:32:05.954Z,100961.56
2023-02-02T02:34:45.060Z,100963.88
2023-02-02T02:37:18.390Z,100961.56
2023-02-02T02:39:51.538Z,100976.63
2023-02-02T02:42:23.832Z,100969.69
2023-02-02T02:44:52.311Z,100980.97
2023-02-02T02:47:21.814Z,100973.66
2023-02-02T02:49:50.364Z,100985.59
2023-02-02T02:52:17.922Z,100994.34
2023-02-02T02:54:50.592Z,100995.00
2023-02-02T02:57:39.409Z,101002.28
2023-02-02T03:00:20.788Z,101016.69
2023-02-02T03:02:56.164Z,101019.91
2023-02-02T03:05:33.017Z,101021.91
2023-02-02T03:08:08.618Z,101028.72
2023-02-02T03:10:38.622Z,101016.63
2023-02-02T03:13:09.475Z,101017.44
2023-02-02T03:15:37.460Z,101012.16
2023-02-02T03:18:06.501Z,101010.16
2023-02-02T03:20:35.064Z,101019.75
2023-02-02T03:23:02.656Z,101029.03
2023-02-02T03:25:30.284Z,101037.13
2023-02-02T03:27:59.473Z,101029.03
2023-02-02T03:30:27.239Z,101033.31
2023-02-02T03:32:55.011Z,101039.28
2023-02-02T03:35:25.968Z,101038.97
2023-02-02T03:37:53.678Z,101043.28
2023-02-02T03:40:21.280Z,101040.28
2023-02-02T03:42:48.797Z,101051.53
2023-02-02T03:45:16.836Z,101049.22
2023-02-02T03:47:44.314Z,101059.66
2023-02-02T03:50:12.616Z,101061.28
2023-02-02T03:52:41.508Z,101056.50
2023-02-02T03:55:09.576Z,101068.41
2023-02-02T03:57:37.105Z,101069.56
2023-02-02T04:00:05.915Z,101070.72
2023-02-02T04:02:39.721Z,101080.97
2023-02-02T04:05:07.549Z,101083.63
2023-02-02T04:07:35.081Z,101085.94
2023-02-02T04:10:04.267Z,101094.22
2023-02-02T04:12:31.796Z,101105.50
2023-02-02T04:14:59.335Z,101116.09
2023-02-02T04:17:26.848Z,101110.13
2023-02-02T04:19:58.063Z,101113.44
2023-02-02T04:22:25.715Z,101118.38
2023-02-02T04:24:53.319Z,101114.25
2023-02-02T04:27:22.169Z,101134.63
2023-02-02T04:29:49.719Z,101118.06
2023-02-02T04:32:18.760Z,101117.59
2023-02-02T04:34:46.459Z,101133.31
2023-02-02T04:37:13.953Z,101128.84
2023-02-02T04:39:41.541Z,101134.16
2023-02-02T04:42:09.016Z,101141.25
2023-02-02T04:44:37.865Z,101143.06
2023-02-02T04:47:05.521Z,101140.56
2023-02-02T04:49:33.095Z,101141.91
2023-02-02T04:52:00.587Z,101155.16
2023-02-02T04:54:28.328Z,101147.53
2023-02-02T04:56:55.870Z,101154.81
2023-02-02T04:59:23.501Z,101151.19
2023-02-02T05:01:52.390Z,101150.19
2023-02-02T05:04:19.985Z,101150.88
2023-02-02T05:06:47.546Z,101150.88
2023-02-02T05:09:15.410Z,101155.47
2023-02-02T05:11:44.406Z,101166.44
2023-02-02T05:14:12.524Z,101157.81
2023-02-02T05:16:40.246Z,101154.81
2023-02-02T05:19:11.133Z,101165.94
2023-02-02T05:21:38.779Z,101163.94
2023-02-02T05:24:06.765Z,101170.06
2023-02-02T05:26:35.070Z,101168.06
2023-02-02T05:29:02.796Z,101170.25
2023-02-02T05:31:31.908Z,101171.38
2023-02-02T05:33:59.797Z,101177.34
2023-02-02T05:36:29.108Z,101176.34
2023-02-02T05:38:56.668Z,101179.97
2023-02-02T05:41:24.246Z,101195.41
2023-02-02T05:43:51.792Z,101189.44
2023-02-02T05:46:19.338Z,101200.84
2023-02-02T05:48:46.855Z,101198.88
2023-02-02T05:51:17.987Z,101198.56
2023-02-02T05:53:47.152Z,101210.47
2023-02-02T05:56:15.730Z,101205.81
2023-02-02T05:58:44.433Z,101212.78
2023-02-02T06:01:12.032Z,101206.31
2023-02-02T06:03:39.788Z,101212.59
2023-02-02T06:06:07.427Z,101218.41
2023-02-02T06:08:35.050Z,101218.91
2023-02-02T06:11:11.117Z,101216.41
2023-02-02T06:13:38.965Z,101215.75
2023-02-02T06:16:07.525Z,101221.91
2023-02-02T06:18:35.786Z,101228.88
2023-02-02T06:21:05.667Z,101224.41
2023-02-02T06:23:34.571Z,101232.34
2023-02-02T06:26:03.434Z,101230.69
2023-02-02T06:28:32.909Z,101239.97
2023-02-02T06:31:05.524Z,101239.97
2023-02-02T06:33:33.329Z,101238.31
2023-02-02T06:36:01.905Z,101245.25
2023-02-02T06:38:29.799Z,101264.47
2023-02-02T06:41:00.067Z,101253.53
2023-02-02T06:43:27.615Z,101272.75
2023-02-02T06:45:58.252Z,101270.28
2023-02-02T06:48:26.126Z,101278.06
2023-02-02T06:50:53.976Z,101283.19
2023-02-02T06:53:23.170Z,101286.84
2023-02-02T06:55:54.515Z,101280.69
2023-02-02T06:58:22.102Z,101287.81
2023-02-02T07:00:50.196Z,101292.59
2023-02-02T07:03:21.275Z,101294.25
2023-02-02T07:05:49.865Z,101306.81
2023-02-02T07:08:17.866Z,101305.00
2023-02-02T07:11:13.424Z,101309.47
2023-02-02T07:13:32.873Z,101314.94
2023-02-02T07:16:00.689Z,101318.75
2023-02-02T07:18:30.316Z,101313.59
2023-02-02T07:20:59.530Z,101322.34
2023-02-02T07:23:27.222Z,101330.31
2023-02-02T07:26:01.846Z,101335.44
2023-02-02T07:28:29.544Z,101341.88
2023-02-02T07:30:57.386Z,101353.09
2023-02-02T07:33:25.024Z,101340.56
2023-02-02T07:35:54.269Z,101342.72
2023-02-02T07:38:21.794Z,101351.81
2023-02-02T07:40:49.371Z,101349.19
2023-02-02T07:43:18.833Z,101358.16
2023-02-02T07:45:46.367Z,101360.97
2023-02-02T07:48:13.871Z,101376.38
2023-02-02T07:50:41.389Z,101375.38
2023-02-02T07:53:10.351Z,101378.22
2023-02-02T07:55:37.924Z,101377.72
2023-02-02T07:58:07.722Z,101384.50
2023-02-02T08:00:35.295Z,101394.94
2023-02-02T08:03:02.907Z,101397.75
2023-02-02T08:05:30.469Z,101390.31
2023-02-02T08:07:58.151Z,101405.56
2023-02-02T08:10:27.085Z,101404.91
2023-02-02T08:12:54.671Z,101411.34
2023-02-02T08:15:22.467Z,101410.88
2023-02-02T08:17:50.079Z,101410.53
2023-02-02T08:20:17.712Z,101412.84
2023-02-02T08:22:45.235Z,101419.63
2023-02-02T08:25:12.858Z,101424.75
2023-02-02T08:27:41.726Z,101426.09
2023-02-02T08:30:11.051Z,101424.94
2023-02-02T08:32:38.647Z,101430.25
2023-02-02T08:35:07.017Z,101437.34
2023-02-02T08:37:34.522Z,101436.41
2023-02-02T08:40:02.126Z,101440.88
2023-02-02T08:42:29.862Z,101444.78
2023-02-02T08:46:01.941Z,101443.13
2023-02-02T08:47:46.348Z,101440.47
2023-02-02T08:50:14.155Z,101445.44
2023-02-02T08:52:41.652Z,101444.97
2023-02-02T08:55:09.642Z,101451.28
2023-02-02T08:57:37.376Z,101456.25
2023-02-02T09:00:07.559Z,101459.09
2023-02-02T09:02:35.322Z,101462.44
2023-02-02T09:05:02.940Z,101470.41
2023-02-02T09:07:30.502Z,101476.69
2023-02-02T09:09:58.171Z,101474.75
2023-02-02T09:12:26.083Z,101472.41
2023-02-02T09:14:53.622Z,101482.53
2023-02-02T09:17:24.050Z,101484.38
2023-02-02T09:19:51.710Z,101484.69
2023-02-02T09:22:19.295Z,101495.97
2023-02-02T09:24:46.868Z,101499.28
2023-02-02T09:27:14.450Z,101503.59
2023-02-02T09:29:42.009Z,101503.00
2023-02-02T09:32:10.473Z,101519.75
2023-02-02T09:34:40.200Z,101510.13
2023-02-02T09:37:08.532Z,101521.56
2023-02-02T09:39:36.089Z,101517.94
2023-02-02T09:42:29.245Z,101521.59
2023-02-02T09:45:05.267Z,101536.38
2023-02-02T09:47:50.705Z,101533.72
2023-02-02T09:50:29.256Z,101532.22
2023-02-02T09:53:02.252Z,101546.16
2023-02-02T09:55:36.418Z,101535.72
2023-02-02T09:58:13.016Z,101545.84
2023-02-02T10:00:45.504Z,101549.31
2023-02-02T10:03:18.702Z,101549.16
2023-02-02T10:05:54.474Z,101557.78
2023-02-02T10:08:34.810Z,101560.44
2023-02-02T10:11:13.226Z,101558.44
2023-02-02T10:13:43.531Z,101561.44
2023-02-02T10:16:18.136Z,101567.41
2023-02-02T10:18:49.834Z,101569.06
2023-02-02T10:21:26.875Z,101568.41
2023-02-02T10:23:55.038Z,101573.38
2023-02-02T10:26:24.165Z,101579.03
2023-02-02T10:29:14.136Z,101585.66
2023-02-02T10:31:45.350Z,101595.97
2023-02-02T10:34:17.725Z,101596.31
2023-02-02T10:36:56.998Z,101612.56
2023-02-02T10:39:35.146Z,101636.66
2023-02-02T10:42:13.963Z,101623.53
2023-02-02T10:44:47.560Z,101623.84
2023-02-02T10:47:21.423Z,101630.88
2023-02-02T10:49:59.879Z,101640.16
2023-02-02T10:52:33.293Z,101641.47
2023-02-02T10:55:06.699Z,101639.19
2023-02-02T10:57:47.007Z,101643.16
2023-02-02T11:00:23.245Z,101648.78
2023-02-02T11:02:51.988Z,101643.16
2023-02-02T11:05:40.550Z,101651.63
2023-02-02T11:08:18.773Z,101649.13
2023-02-02T11:10:48.150Z,101642.00
2023-02-02T11:13:24.052Z,101644.78
2023-02-02T11:15:51.672Z,101646.44
2023-02-02T11:18:30.098Z,101639.47
2023-02-02T11:20:58.498Z,101638.91
2023-02-02T11:23:29.106Z,101655.72
2023-02-02T11:26:02.161Z,101645.94
2023-02-02T11:28:34.977Z,101640.25
2023-02-02T11:31:03.302Z,101656.72
2023-02-02T11:33:33.966Z,101655.09
2023-02-02T11:36:03.366Z,101659.88
2023-02-02T11:38:33.083Z,101656.72
2023-02-02T11:41:03.761Z,101657.72
2023-02-02T11:43:36.221Z,101664.59
2023-02-02T11:46:07.788Z,101661.75
2023-02-02T11:48:38.770Z,101665.75
2023-02-02T11:51:07.722Z,101657.41
2023-02-02T11:53:42.639Z,101658.63
2023-02-02T11:56:19.773Z,101660.75
2023-02-02T11:58:49.206Z,101663.59
2023-02-02T12:01:25.252Z,101655.22
2023-02-02T12:03:54.108Z,101658.63
2023-02-02T12:06:23.705Z,101671.47
2023-02-02T12:08:56.333Z,101669.53
2023-02-02T12:11:36.371Z,101664.00
2023-02-02T12:14:20.071Z,101665.47
2023-02-02T12:16:56.868Z,101670.25
2023-02-02T12:19:42.237Z,101672.28
2023-02-02T12:22:27.107Z,101671.25
2023-02-02T12:25:01.528Z,101673.56
2023-02-02T12:27:43.564Z,101680.38
2023-02-02T12:30:24.626Z,101681.25
2023-02-02T12:33:09.247Z,101682.41
2023-02-02T12:35:53.134Z,101688.66
2023-02-02T12:38:32.345Z,101680.59
2023-02-02T12:41:16.403Z,101680.44
2023-02-02T12:43:46.509Z,101685.75
2023-02-02T12:46:25.079Z,101683.31
2023-02-02T12:49:14.166Z,101688.31
2023-02-02T12:51:55.580Z,101685.41
2023-02-02T12:54:44.851Z,101695.63
2023-02-02T12:57:25.434Z,101695.97
2023-02-02T13:00:08.744Z,101689.66
2023-02-02T13:02:42.118Z,101695.16
2023-02-02T13:05:30.447Z,101697.28
2023-02-02T13:08:04.570Z,101697.94
2023-02-02T13:10:37.593Z,101696.94
2023-02-02T13:13:11.156Z,101706.28
2023-02-02T13:15:43.272Z,101702.63
2023-02-02T13:18:15.893Z,101711.28
2023-02-02T13:20:47.253Z,101705.47
2023-02-02T13:23:22.556Z,101702.31
2023-02-02T13:25:54.198Z,101696.47
2023-02-02T13:28:37.052Z,101706.47
2023-02-02T13:31:12.571Z,101713.25
2023-02-02T13:33:42.681Z,101708.75
2023-02-02T13:36:19.265Z,101712.59
2023-02-02T13:38:47.352Z,101708.09
2023-02-02T13:41:16.148Z,101707.59
2023-02-02T13:43:52.444Z,101706.22
2023-02-02T13:46:30.439Z,101710.66
2023-02-02T13:49:05.150Z,101718.06
2023-02-02T13:51:50.931Z,101714.28
2023-02-02T13:54:50.340Z,101721.13
2023-02-02T13:57:37.685Z,101717.03
2023-02-02T14:00:16.782Z,101721.13
2023-02-02T14:02:48.443Z,101718.00
2023-02-02T14:05:25.853Z,101720.53
2023-02-02T14:08:01.971Z,101724.88
2023-02-02T14:10:33.416Z,101728.72
2023-02-02T14:13:30.481Z,101727.06
2023-02-02T14:16:02.549Z,101732.91
2023-02-02T14:18:52.962Z,101731.72
2023-02-02T14:21:53.762Z,101728.22
2023-02-02T14:24:44.951Z,101725.09
2023-02-02T14:27:41.897Z,101729.91
2023-02-02T14:30:27.793Z,101731.06
2023-02-02T14:33:24.207Z,101738.22
2023-02-02T14:36:02.668Z,101738.22
2023-02-02T14:39:02.635Z,101747.16
2023-02-02T14:42:09.983Z,101749.50
2023-02-02T14:44:38.571Z,101748.84
2023-02-02T14:47:43.267Z,101760.47
2023-02-02T14:50:18.644Z,101762.97
2023-02-02T14:52:46.421Z,101765.97
2023-02-02T14:55:19.871Z,101773.63
2023-02-02T14:57:55.890Z,101775.75
2023-02-02T15:00:26.850Z,101786.41
2023-02-02T15:02:54.529Z,101783.59
2023-02-02T15:05:46.148Z,101791.25
2023-02-02T15:08:22.449Z,101795.72
2023-02-02T15:11:28.098Z,101793.53
2023-02-02T15:14:07.144Z,101793.38
2023-02-02T15:16:37.839Z,101793.38
2023-02-02T15:19:13.587Z,101794.03
2023-02-02T15:21:43.811Z,101799.69
2023-02-02T15:24:21.598Z,101802.16
2023-02-02T15:26:50.554Z,101805.28
2023-02-02T15:29:27.021Z,101814.41
2023-02-02T15:31:56.509Z,101819.22
2023-02-02T15:34:28.081Z,101819.69
2023-02-02T15:37:01.219Z,101830.44
2023-02-02T15:39:31.854Z,101831.72
2023-02-02T15:42:19.703Z,101833.06
2023-02-02T15:44:47.249Z,101839.84
2023-02-02T15:47:17.962Z,101841.78
2023-02-02T15:49:46.106Z,101845.91
2023-02-02T15:52:16.993Z,101840.91
2023-02-02T15:54:53.731Z,101847.31
2023-02-02T15:57:28.986Z,101851.41
2023-02-02T15:59:57.042Z,101857.00
2023-02-02T16:02:34.958Z,101854.75
2023-02-02T16:05:02.603Z,101869.91
2023-02-02T16:07:34.606Z,101866.56
2023-02-02T16:10:06.498Z,101879.19
2023-02-02T16:12:36.096Z,101873.16
2023-02-02T16:15:03.931Z,101881.50
2023-02-02T16:17:32.875Z,101887.34
2023-02-02T16:20:04.134Z,101898.78
2023-02-02T16:22:33.857Z,101900.84
2023-02-02T16:25:04.211Z,101893.44
2023-02-02T16:27:32.907Z,101895.09
2023-02-02T16:30:02.703Z,101892.06
2023-02-02T16:32:31.952Z,101902.06
2023-02-02T16:35:04.495Z,101901.22
2023-02-02T16:37:36.295Z,101898.75
2023-02-02T16:40:18.787Z,101901.34
2023-02-02T16:42:46.467Z,101903.69
2023-02-02T16:45:44.692Z,101904.03
2023-02-02T16:48:31.559Z,101899.88
2023-02-02T16:51:22.781Z,101904.34
2023-02-02T16:53:57.605Z,101903.69
2023-02-02T16:56:30.704Z,101893.88
2023-02-02T16:59:02.965Z,101898.88
2023-02-02T17:01:40.283Z,101899.72
2023-02-02T17:04:18.192Z,101899.03
2023-02-02T17:06:52.767Z,101899.34
2023-02-02T17:09:35.069Z,101903.28
2023-02-02T17:12:09.224Z,101904.59
2023-02-02T17:14:38.636Z,101903.59
2023-02-02T17:17:07.496Z,101902.63
2023-02-02T17:19:35.098Z,101902.75
2023-02-02T17:22:06.022Z,101904.38
2023-02-02T17:24:35.346Z,101906.03
2023-02-02T17:27:03.379Z,101907.16
2023-02-02T17:29:30.989Z,101903.69
2023-02-02T17:31:58.635Z,101901.47
2023-02-02T17:34:26.244Z,101903.06
2023-02-02T17:36:54.164Z,101903.22
2023-02-02T17:39:21.705Z,101900.03
2023-02-02T17:41:51.313Z,101898.06
2023-02-02T17:44:18.856Z,101895.75
2023-02-02T17:46:46.378Z,101892.25
2023-02-02T17:49:13.970Z,101889.06
2023-02-02T17:51:43.323Z,101884.34
2023-02-02T17:54:12.772Z,101886.94
2023-02-02T17:56:40.569Z,101879.81
2023-02-02T17:59:12.153Z,101893.75
2023-02-02T18:01:41.675Z,101898.38
2023-02-02T18:04:13.395Z,101896.41
2023-02-02T18:06:41.019Z,101894.91
2023-02-02T18:09:10.178Z,101898.22
2023-02-02T18:11:37.706Z,101894.44
2023-02-02T18:14:05.488Z,101895.94
2023-02-02T18:16:34.404Z,101899.28
2023-02-02T18:19:03.000Z,101896.78
2023-02-02T18:21:32.277Z,101889.50
2023-02-02T18:23:59.852Z,101893.16
2023-02-02T18:26:27.528Z,101889.00
2023-02-02T18:28:55.141Z,101885.88
2023-02-02T18:31:23.786Z,101881.09
2023-02-02T18:33:53.695Z,101882.69
2023-02-02T18:36:23.520Z,101885.34
2023-02-02T18:38:53.689Z,101879.41
2023-02-02T18:41:21.977Z,101881.09
2023-02-02T18:43:49.736Z,101873.50
2023-02-02T18:46:17.713Z,101866.31
2023-02-02T18:48:45.283Z,101867.66
2023-02-02T18:51:16.518Z,101865.72
2023-02-02T18:53:44.200Z,101869.81
2023-02-02T18:56:13.950Z,101880.56
2023-02-02T18:58:41.784Z,101870.13
2023-02-02T19:01:10.013Z,101862.66
2023-02-02T19:03:37.818Z,101847.91
2023-02-02T19:06:24.549Z,101839.63
2023-02-02T19:08:53.827Z,101849.94
2023-02-02T19:11:24.134Z,101839.34
2023-02-02T19:13:51.793Z,101836.00
2023-02-02T19:16:25.409Z,101834.63
2023-02-02T19:18:53.129Z,101830.84
2023-02-02T19:21:20.647Z,101827.44
2023-02-02T19:23:48.153Z,101825.94
2023-02-02T19:26:23.030Z,101825.09
2023-02-02T19:28:51.223Z,101825.22
2023-02-02T19:31:19.354Z,101823.50
2023-02-02T19:33:49.164Z,101814.78
2023-02-02T19:36:18.813Z,101807.50
2023-02-02T19:38:47.195Z,101799.72
2023-02-02T19:41:18.845Z,101793.09
2023-02-02T19:43:48.563Z,101794.09
2023-02-02T19:46:20.684Z,101785.00
2023-02-02T19:48:51.919Z,101798.28
2023-02-02T19:51:36.121Z,101795.38
2023-02-02T19:54:04.417Z,101796.91
2023-02-02T19:56:37.909Z,101791.28
2023-02-02T19:59:13.419Z,101783.31
2023-02-02T20:01:41.068Z,101787.34
2023-02-02T20:04:15.458Z,101795.00
2023-02-02T20:06:56.745Z,101789.69
2023-02-02T20:09:34.504Z,101778.91
2023-02-02T20:12:02.267Z,101783.69
2023-02-02T20:14:34.453Z,101790.66
2023-02-02T20:17:07.564Z,101795.88
2023-02-02T20:19:41.129Z,101779.75
2023-02-02T20:22:24.618Z,101774.44
2023-02-02T20:24:52.902Z,101762.78
2023-02-02T20:27:22.493Z,101761.09
2023-02-02T20:29:53.733Z,101758.44
2023-02-02T20:32:26.315Z,101761.16
2023-02-02T20:34:56.190Z,101764.22
2023-02-02T20:37:28.951Z,101766.84
2023-02-02T20:39:58.809Z,101771.00
2023-02-02T20:42:26.717Z,101749.78
2023-02-02T20:44:56.351Z,101760.03
2023-02-02T20:47:23.954Z,101751.13
2023-02-02T20:49:51.511Z,101756.00
2023-02-02T20:52:23.713Z,101744.66
2023-02-02T20:54:51.705Z,101738.31
2023-02-02T20:57:19.638Z,101739.81
2023-02-02T20:59:47.231Z,101732.25
2023-02-02T21:02:19.787Z,101734.28
2023-02-02T21:04:48.009Z,101724.13
2023-02-02T21:07:17.299Z,101716.72
2023-02-02T21:09:45.211Z,101710.28
2023-02-02T21:12:12.748Z,101704.91
2023-02-02T21:14:40.704Z,101703.69
2023-02-02T21:17:15.155Z,101708.53
2023-02-02T21:19:45.031Z,101703.72
2023-02-02T21:22:13.390Z,101689.78
2023-02-02T21:24:42.382Z,101700.38
2023-02-02T21:27:10.255Z,101690.69
2023-02-02T21:29:38.368Z,101708.44
2023-02-02T21:32:06.378Z,101701.75
2023-02-02T21:34:34.988Z,101697.59
2023-02-02T21:37:03.853Z,101703.94
2023-02-02T21:39:33.315Z,101698.63
2023-02-02T21:42:15.937Z,101702.72
2023-02-02T21:44:46.631Z,101700.06
2023-02-02T21:47:26.433Z,101685.63
2023-02-02T21:49:56.478Z,101684.59
2023-02-02T21:52:35.305Z,101668.69
2023-02-02T21:55:31.001Z,101673.66
2023-02-02T21:58:00.119Z,101672.31
2023-02-02T22:00:30.896Z,101651.13
2023-02-02T22:02:59.735Z,101640.88
2023-02-02T22:05:34.270Z,101632.81
2023-02-02T22:08:18.753Z,101626.31
2023-02-02T22:10:46.580Z,101623.25
2023-02-02T22:13:18.816Z,101612.59
2023-02-02T22:15:47.398Z,101598.75
2023-02-02T22:18:18.157Z,101589.44
2023-02-02T22:20:47.329Z,101588.69
2023-02-02T22:23:19.013Z,101573.34
2023-02-02T22:25:47.876Z,101569.69
2023-02-02T22:28:21.210Z,101572.69
2023-02-02T22:30:50.108Z,101555.16
2023-02-02T22:33:17.767Z,101558.16
2023-02-02T22:35:46.163Z,101551.91
2023-02-02T22:38:18.616Z,101545.31
2023-02-02T22:40:46.725Z,101552.13
2023-02-02T22:43:16.155Z,101553.44
2023-02-02T22:45:44.065Z,101550.41
2023-02-02T22:48:12.929Z,101541.16
2023-02-02T22:50:40.887Z,101535.09
2023-02-02T22:53:08.508Z,101530.00
2023-02-02T22:55:37.901Z,101516.75
2023-02-02T22:58:05.502Z,101510.69
2023-02-02T23:00:33.342Z,101510.56
2023-02-02T23:03:01.128Z,101522.81
2023-02-02T23:05:29.181Z,101519.91
2023-02-02T23:07:56.916Z,101497.56
2023-02-02T23:10:27.377Z,101488.03
2023-02-02T23:12:58.348Z,101480.09
2023-02-02T23:15:26.362Z,101484.38
2023-02-02T23:17:54.008Z,101482.06
2023-02-02T23:20:21.897Z,101476.38
2023-02-02T23:22:49.522Z,101454.25
2023-02-02T23:25:18.580Z,101444.44
2023-02-02T23:27:46.367Z,101443.81
2023-02-02T23:30:17.409Z,101440.34
2023-02-02T23:32:44.936Z,101433.41
2023-02-02T23:35:12.524Z,101422.28
2023-02-02T23:37:40.208Z,101421.47
2023-02-02T23:40:09.096Z,101430.75
2023-02-02T23:42:37.443Z,101427.16
2023-02-02T23:45:05.511Z,101410.09
2023-02-02T23:47:35.445Z,101423.50
2023-02-02T23:50:05.315Z,101426.03
2023-02-02T23:52:33.767Z,101429.06
2023-02-02T23:55:03.048Z,101417.28
2023-02-02T23:57:30.960Z,101420.63
2023-02-02T23:59:58.566Z,101423.94
